Aviation Digital Data Service (ADDS)

Output produced by TAFs form (2125 UTC 30 June 2015)
found at http://www.aviationweather.gov/adds/tafs/
 
KSBY 301938Z 3020/0118 17011G20KT P6SM SCT040 BKN150 
     FM302100 19009KT P6SM VCTS BKN040CB 
     FM010800 21007KT P6SM BKN120